Longmont, CO

7:07 PM MST on December 27, 2014 (GMT -0700)
US36 and Nelson Road | Change Station
CLOSE
Current Station
Personal Weather Station
Location: Longmont, CO
Elevation: 5669 ft
Nearby Weather Stations

Elev 5669 ft 40.15 °N, 105.27 °W | Updated 12 minutes ago

Clear
Clear
15.9 °F
Feels Like 15.9 °F
N
2.0
Wind Variable Wind from WSW
Gusts 4.0 mph

Today
High -- | Low -- °F
--% Chance of Precip.
Yesterday
High -- | Low -- °F
Precip. -- in
7:22 AM 4:42 PM
Waxing Crescent, 42% visible
Pressure 30.09 in
Visibility 10.0 miles
Clouds Clear
Dew Point 13.0 °F
Humidity 89%
Rainfall 0.14 in
Snow Depth Not available.
UV 0 out of 12
Pollen .10 out of 12
Air Quality Not available.
Flu Activity Not available.
METAR KLMO 280155Z AUTO 00000KT 10SM CLR M09/M12 A3009 RMK AO2 T10861116

More Conditions Fewer Conditions

Pressure 30.09 in
Visibility 10.0 miles
Clouds Clear
Dew Point 13.0 °F
Humidity 89%
Rainfall 0.14 in
Snow Depth Not available.
UV 0 out of 12
Pollen .10 out of 12
Air Quality Not available.
Flu Activity Not available.
METAR KLMO 280155Z AUTO 00000KT 10SM CLR M09/M12 A3009 RMK AO2 T10861116

More Conditions Fewer Conditions

10-Day Weather Forecast

Almanac

Astronomy

Dec. 27, 2014 Rise Set
Actual Time
Civil Twilight
Nautical Twilight
Astronomical Twilight
Moon
Length of Visible Light
Length of Day
Tomorrow will be .
, % of the Moon is Illuminated

Today's Extremes

State Highs State Lows

Community

WunderPhotos

Upload Photos

1,781,137 photos uploaded!

WunderBlogs® & News

Nearby

Air Quality

  Air Quality AQ Index Pollutant
Not available.

Snow Depth

Station Depth Elevation

Earthquake Activity

City Distance Mag. Time & Date
Minimum magnitude displayed is 2.5.

Coastal Water Temperatures

Place Temperature

Nearby Weather Stations